sensor_id;sensor_type;location;lat;lon;timestamp;pressure;altitude;pressure_sealevel;temperature;humidity
4022;BME280;2025;48.260;16.432;2023-05-08T00:00:34;100576.88;;;6.99;70.72
4022;BME280;2025;48.260;16.432;2023-05-08T00:03:01;100581.63;;;7.05;70.10
4022;BME280;2025;48.260;16.432;2023-05-08T00:05:30;100578.19;;;7.04;69.38
4022;BME280;2025;48.260;16.432;2023-05-08T00:07:56;100582.44;;;7.05;70.29
4022;BME280;2025;48.260;16.432;2023-05-08T00:10:26;100577.81;;;7.09;70.04
4022;BME280;2025;48.260;16.432;2023-05-08T00:12:53;100582.88;;;7.10;69.02
4022;BME280;2025;48.260;16.432;2023-05-08T00:15:21;100574.28;;;7.20;69.03
4022;BME280;2025;48.260;16.432;2023-05-08T00:17:48;100570.63;;;7.11;68.89
4022;BME280;2025;48.260;16.432;2023-05-08T00:20:15;100563.16;;;7.06;69.56
4022;BME280;2025;48.260;16.432;2023-05-08T00:22:43;100571.31;;;7.13;69.24
4022;BME280;2025;48.260;16.432;2023-05-08T00:25:10;100582.44;;;7.05;69.80
4022;BME280;2025;48.260;16.432;2023-05-08T00:27:37;100579.00;;;7.05;69.46
4022;BME280;2025;48.260;16.432;2023-05-08T00:30:05;100581.56;;;6.95;69.74
4022;BME280;2025;48.260;16.432;2023-05-08T00:32:33;100572.00;;;6.94;69.39
4022;BME280;2025;48.260;16.432;2023-05-08T00:35:00;100577.63;;;6.89;70.63
4022;BME280;2025;48.260;16.432;2023-05-08T00:37:27;100576.53;;;6.92;69.59
4022;BME280;2025;48.260;16.432;2023-05-08T00:39:55;100572.75;;;6.85;70.88
4022;BME280;2025;48.260;16.432;2023-05-08T00:42:22;100568.50;;;6.84;70.03
4022;BME280;2025;48.260;16.432;2023-05-08T00:44:49;100567.97;;;6.90;70.28
4022;BME280;2025;48.260;16.432;2023-05-08T00:47:16;100565.06;;;6.83;69.99
4022;BME280;2025;48.260;16.432;2023-05-08T00:49:43;100573.03;;;6.82;70.06
4022;BME280;2025;48.260;16.432;2023-05-08T00:52:10;100573.06;;;6.70;71.87
4022;BME280;2025;48.260;16.432;2023-05-08T00:54:37;100579.25;;;6.69;71.03
4022;BME280;2025;48.260;16.432;2023-05-08T00:57:07;100583.53;;;6.70;70.64
4022;BME280;2025;48.260;16.432;2023-05-08T00:59:35;100583.06;;;6.65;71.84
4022;BME280;2025;48.260;16.432;2023-05-08T01:02:02;100575.56;;;6.72;70.37
4022;BME280;2025;48.260;16.432;2023-05-08T01:04:31;100579.00;;;6.72;70.58
4022;BME280;2025;48.260;16.432;2023-05-08T01:07:00;100575.41;;;6.73;70.13
4022;BME280;2025;48.260;16.432;2023-05-08T01:09:27;100586.88;;;6.61;70.93
4022;BME280;2025;48.260;16.432;2023-05-08T01:12:03;100583.34;;;6.62;71.13
4022;BME280;2025;48.260;16.432;2023-05-08T01:14:41;100577.59;;;6.57;71.48
4022;BME280;2025;48.260;16.432;2023-05-08T01:17:17;100582.66;;;6.49;71.79
4022;BME280;2025;48.260;16.432;2023-05-08T01:19:57;100580.13;;;6.47;72.09
4022;BME280;2025;48.260;16.432;2023-05-08T01:22:41;100582.19;;;6.44;71.76
4022;BME280;2025;48.260;16.432;2023-05-08T01:25:39;100582.66;;;6.49;71.62
4022;BME280;2025;48.260;16.432;2023-05-08T01:28:30;100575.72;;;6.48;72.20
4022;BME280;2025;48.260;16.432;2023-05-08T01:31:11;100583.25;;;6.41;72.70
4022;BME280;2025;48.260;16.432;2023-05-08T01:33:49;100582.28;;;6.42;71.81
4022;BME280;2025;48.260;16.432;2023-05-08T01:36:26;100584.19;;;6.40;72.71
4022;BME280;2025;48.260;16.432;2023-05-08T01:39:02;100586.00;;;6.40;72.96
4022;BME280;2025;48.260;16.432;2023-05-08T01:41:33;100589.31;;;6.42;72.54
4022;BME280;2025;48.260;16.432;2023-05-08T01:44:09;100589.19;;;6.43;72.23
4022;BME280;2025;48.260;16.432;2023-05-08T01:46:38;100592.88;;;6.41;72.26
4022;BME280;2025;48.260;16.432;2023-05-08T01:49:08;100589.09;;;6.33;73.15
4022;BME280;2025;48.260;16.432;2023-05-08T01:51:40;100592.16;;;6.39;72.33
4022;BME280;2025;48.260;16.432;2023-05-08T01:54:14;100585.63;;;6.33;73.29
4022;BME280;2025;48.260;16.432;2023-05-08T01:56:45;100588.72;;;6.27;72.80
4022;BME280;2025;48.260;16.432;2023-05-08T01:59:16;100596.00;;;6.35;71.84
4022;BME280;2025;48.260;16.432;2023-05-08T02:01:47;100595.28;;;6.32;72.07
4022;BME280;2025;48.260;16.432;2023-05-08T02:04:16;100601.94;;;6.25;72.19
4022;BME280;2025;48.260;16.432;2023-05-08T02:06:44;100598.50;;;6.25;72.43
4022;BME280;2025;48.260;16.432;2023-05-08T02:09:12;100599.69;;;6.21;72.55
4022;BME280;2025;48.260;16.432;2023-05-08T02:11:40;100600.41;;;6.11;73.48
4022;BME280;2025;48.260;16.432;2023-05-08T02:14:10;100600.41;;;6.11;72.77
4022;BME280;2025;48.260;16.432;2023-05-08T02:16:40;100600.66;;;6.08;72.50
4022;BME280;2025;48.260;16.432;2023-05-08T02:19:09;100602.91;;;6.02;73.48
4022;BME280;2025;48.260;16.432;2023-05-08T02:21:39;100597.44;;;6.05;72.72
4022;BME280;2025;48.260;16.432;2023-05-08T02:24:08;100603.84;;;6.01;73.67
4022;BME280;2025;48.260;16.432;2023-05-08T02:26:36;100598.75;;;5.99;73.09
4022;BME280;2025;48.260;16.432;2023-05-08T02:29:05;100604.22;;;5.96;73.27
4022;BME280;2025;48.260;16.432;2023-05-08T02:31:33;100608.63;;;5.96;73.29
4022;BME280;2025;48.260;16.432;2023-05-08T02:34:03;100609.75;;;5.91;73.32
4022;BME280;2025;48.260;16.432;2023-05-08T02:36:31;100604.44;;;5.93;73.25
4022;BME280;2025;48.260;16.432;2023-05-08T02:39:01;100612.19;;;5.95;73.15
4022;BME280;2025;48.260;16.432;2023-05-08T02:41:29;100614.50;;;5.86;73.97
4022;BME280;2025;48.260;16.432;2023-05-08T02:43:58;100616.31;;;5.86;73.39
4022;BME280;2025;48.260;16.432;2023-05-08T02:46:29;100605.97;;;5.84;73.77
4022;BME280;2025;48.260;16.432;2023-05-08T02:49:06;100615.22;;;5.77;73.90
4022;BME280;2025;48.260;16.432;2023-05-08T02:51:41;100606.66;;;5.75;74.21
4022;BME280;2025;48.260;16.432;2023-05-08T02:54:16;100603.31;;;5.73;73.84
4022;BME280;2025;48.260;16.432;2023-05-08T02:56:49;100613.78;;;5.73;74.01
4022;BME280;2025;48.260;16.432;2023-05-08T02:59:22;100610.34;;;5.73;74.42
4022;BME280;2025;48.260;16.432;2023-05-08T03:01:58;100607.63;;;5.74;74.01
4022;BME280;2025;48.260;16.432;2023-05-08T03:04:34;100617.59;;;5.80;73.78
4022;BME280;2025;48.260;16.432;2023-05-08T03:07:03;100617.72;;;5.79;73.24
4022;BME280;2025;48.260;16.432;2023-05-08T03:09:37;100615.94;;;5.79;73.79
4022;BME280;2025;48.260;16.432;2023-05-08T03:12:10;100611.66;;;5.67;74.40
4022;BME280;2025;48.260;16.432;2023-05-08T03:14:43;100621.88;;;5.70;73.99
4022;BME280;2025;48.260;16.432;2023-05-08T03:17:14;100621.13;;;5.57;74.77
4022;BME280;2025;48.260;16.432;2023-05-08T03:19:45;100618.28;;;5.60;74.86
4022;BME280;2025;48.260;16.432;2023-05-08T03:22:14;100615.91;;;5.57;74.79
4022;BME280;2025;48.260;16.432;2023-05-08T03:24:45;100614.59;;;5.51;74.88
4022;BME280;2025;48.260;16.432;2023-05-08T03:27:13;100621.13;;;5.57;74.72
4022;BME280;2025;48.260;16.432;2023-05-08T03:29:43;100621.59;;;5.51;74.58
4022;BME280;2025;48.260;16.432;2023-05-08T03:32:12;100622.78;;;5.46;74.80
4022;BME280;2025;48.260;16.432;2023-05-08T03:34:40;100617.78;;;5.43;75.20
4022;BME280;2025;48.260;16.432;2023-05-08T03:37:07;100626.56;;;5.42;75.30
4022;BME280;2025;48.260;16.432;2023-05-08T03:39:34;100636.78;;;5.45;74.90
4022;BME280;2025;48.260;16.432;2023-05-08T03:42:03;100632.78;;;5.53;74.09
4022;BME280;2025;48.260;16.432;2023-05-08T03:44:31;100627.56;;;5.53;74.07
4022;BME280;2025;48.260;16.432;2023-05-08T03:46:59;100634.88;;;5.47;74.66
4022;BME280;2025;48.260;16.432;2023-05-08T03:49:28;100630.94;;;5.42;74.94
4022;BME280;2025;48.260;16.432;2023-05-08T03:51:56;100630.50;;;5.48;74.54
4022;BME280;2025;48.260;16.432;2023-05-08T03:54:24;100623.97;;;5.54;74.36
4022;BME280;2025;48.260;16.432;2023-05-08T03:56:53;100622.78;;;5.46;74.99
4022;BME280;2025;48.260;16.432;2023-05-08T03:59:28;100628.38;;;5.53;74.74
4022;BME280;2025;48.260;16.432;2023-05-08T04:02:07;100623.72;;;5.57;74.82
4022;BME280;2025;48.260;16.432;2023-05-08T04:04:38;100624.22;;;5.51;74.42
4022;BME280;2025;48.260;16.432;2023-05-08T04:07:09;100629.44;;;5.51;75.03
4022;BME280;2025;48.260;16.432;2023-05-08T04:09:42;100637.28;;;5.51;74.88
4022;BME280;2025;48.260;16.432;2023-05-08T04:12:14;100635.84;;;5.46;75.02
4022;BME280;2025;48.260;16.432;2023-05-08T04:14:48;100635.97;;;5.56;74.58
4022;BME280;2025;48.260;16.432;2023-05-08T04:17:18;100638.34;;;5.59;74.79
4022;BME280;2025;48.260;16.432;2023-05-08T04:19:51;100641.81;;;5.60;74.42
4022;BME280;2025;48.260;16.432;2023-05-08T04:22:24;100643.38;;;5.62;74.51
4022;BME280;2025;48.260;16.432;2023-05-08T04:24:53;100640.16;;;5.70;74.41
4022;BME280;2025;48.260;16.432;2023-05-08T04:27:24;100639.09;;;5.73;74.15
4022;BME280;2025;48.260;16.432;2023-05-08T04:29:53;100646.97;;;5.84;73.64
4022;BME280;2025;48.260;16.432;2023-05-08T04:32:21;100648.66;;;5.96;73.25
4022;BME280;2025;48.260;16.432;2023-05-08T04:34:49;100654.50;;;6.00;73.84
4022;BME280;2025;48.260;16.432;2023-05-08T04:37:26;100657.34;;;6.08;72.13
4022;BME280;2025;48.260;16.432;2023-05-08T04:39:54;100662.00;;;6.16;72.46
4022;BME280;2025;48.260;16.432;2023-05-08T04:42:21;100658.91;;;6.22;72.79
4022;BME280;2025;48.260;16.432;2023-05-08T04:44:49;100663.19;;;6.34;71.71
4022;BME280;2025;48.260;16.432;2023-05-08T04:47:17;100667.09;;;6.40;71.98
4022;BME280;2025;48.260;16.432;2023-05-08T04:49:44;100666.38;;;6.49;72.06
4022;BME280;2025;48.260;16.432;2023-05-08T04:52:12;100665.41;;;6.61;71.15
4022;BME280;2025;48.260;16.432;2023-05-08T04:54:39;100662.44;;;6.54;71.25
4022;BME280;2025;48.260;16.432;2023-05-08T04:57:06;100665.31;;;6.63;70.77
4022;BME280;2025;48.260;16.432;2023-05-08T04:59:33;100663.25;;;6.66;71.97
4022;BME280;2025;48.260;16.432;2023-05-08T05:02:00;100669.56;;;6.75;70.99
4022;BME280;2025;48.260;16.432;2023-05-08T05:04:28;100663.59;;;6.73;71.31
4022;BME280;2025;48.260;16.432;2023-05-08T05:06:55;100668.34;;;6.90;70.11
4022;BME280;2025;48.260;16.432;2023-05-08T05:09:22;100677.38;;;6.97;70.95
4022;BME280;2025;48.260;16.432;2023-05-08T05:11:50;100674.13;;;7.05;69.54
4022;BME280;2025;48.260;16.432;2023-05-08T05:14:17;100672.47;;;7.04;69.80
4022;BME280;2025;48.260;16.432;2023-05-08T05:16:44;100671.84;;;7.12;68.85
4022;BME280;2025;48.260;16.432;2023-05-08T05:19:11;100676.59;;;7.18;67.60
4022;BME280;2025;48.260;16.432;2023-05-08T05:21:40;100686.09;;;7.19;68.42
4022;BME280;2025;48.260;16.432;2023-05-08T05:24:07;100678.69;;;7.24;67.83
4022;BME280;2025;48.260;16.432;2023-05-08T05:26:34;100681.34;;;7.45;68.38
4022;BME280;2025;48.260;16.432;2023-05-08T05:29:01;100684.38;;;7.62;68.28
4022;BME280;2025;48.260;16.432;2023-05-08T05:31:28;100678.34;;;7.71;67.48
4022;BME280;2025;48.260;16.432;2023-05-08T05:33:56;100683.91;;;7.77;68.10
4022;BME280;2025;48.260;16.432;2023-05-08T05:36:23;100686.59;;;7.87;67.70
4022;BME280;2025;48.260;16.432;2023-05-08T05:38:51;100688.13;;;7.90;65.52
4022;BME280;2025;48.260;16.432;2023-05-08T05:41:18;100686.16;;;7.82;66.30
4022;BME280;2025;48.260;16.432;2023-05-08T05:43:46;100679.63;;;7.97;66.40
4022;BME280;2025;48.260;16.432;2023-05-08T05:46:13;100687.34;;;7.99;65.81
4022;BME280;2025;48.260;16.432;2023-05-08T05:48:40;100694.13;;;8.01;67.28
4022;BME280;2025;48.260;16.432;2023-05-08T05:51:07;100687.63;;;7.96;66.39
4022;BME280;2025;48.260;16.432;2023-05-08T05:53:34;100689.63;;;8.13;66.07
4022;BME280;2025;48.260;16.432;2023-05-08T05:56:04;100693.47;;;8.30;66.16
4022;BME280;2025;48.260;16.432;2023-05-08T05:58:31;100692.31;;;8.44;65.36
4022;BME280;2025;48.260;16.432;2023-05-08T06:00:58;100690.66;;;8.53;65.52
4022;BME280;2025;48.260;16.432;2023-05-08T06:03:26;100682.09;;;8.51;66.03
4022;BME280;2025;48.260;16.432;2023-05-08T06:05:53;100688.31;;;8.50;64.85
4022;BME280;2025;48.260;16.432;2023-05-08T06:08:20;100692.59;;;8.51;64.32
4022;BME280;2025;48.260;16.432;2023-05-08T06:10:47;100684.63;;;8.62;63.64
4022;BME280;2025;48.260;16.432;2023-05-08T06:13:15;100685.03;;;8.67;63.17
4022;BME280;2025;48.260;16.432;2023-05-08T06:15:42;100685.63;;;8.80;64.27
4022;BME280;2025;48.260;16.432;2023-05-08T06:18:12;100701.16;;;8.83;63.53
4022;BME280;2025;48.260;16.432;2023-05-08T06:20:39;100694.81;;;8.96;64.30
4022;BME280;2025;48.260;16.432;2023-05-08T06:23:06;100700.06;;;9.15;61.38
4022;BME280;2025;48.260;16.432;2023-05-08T06:25:33;100691.09;;;9.27;62.65
4022;BME280;2025;48.260;16.432;2023-05-08T06:28:00;100701.47;;;9.29;61.86
4022;BME280;2025;48.260;16.432;2023-05-08T06:30:29;100702.44;;;9.28;61.37
4022;BME280;2025;48.260;16.432;2023-05-08T06:32:56;100698.56;;;9.32;63.96
4022;BME280;2025;48.260;16.432;2023-05-08T06:35:23;100707.97;;;9.54;61.29
4022;BME280;2025;48.260;16.432;2023-05-08T06:37:50;100709.78;;;9.54;59.78
4022;BME280;2025;48.260;16.432;2023-05-08T06:40:17;100700.22;;;9.33;61.45
4022;BME280;2025;48.260;16.432;2023-05-08T06:42:44;100705.50;;;9.43;62.30
4022;BME280;2025;48.260;16.432;2023-05-08T06:45:11;100711.97;;;9.48;60.79
4022;BME280;2025;48.260;16.432;2023-05-08T06:47:40;100705.88;;;9.58;60.59
4022;BME280;2025;48.260;16.432;2023-05-08T06:50:07;100710.88;;;9.70;60.49
4022;BME280;2025;48.260;16.432;2023-05-08T06:52:34;100705.41;;;10.01;60.20
4022;BME280;2025;48.260;16.432;2023-05-08T06:55:01;100716.88;;;10.29;59.67
4022;BME280;2025;48.260;16.432;2023-05-08T06:57:28;100711.72;;;10.18;59.53
4022;BME280;2025;48.260;16.432;2023-05-08T06:59:55;100716.75;;;10.02;61.45
4022;BME280;2025;48.260;16.432;2023-05-08T07:02:23;100717.09;;;9.89;60.92
4022;BME280;2025;48.260;16.432;2023-05-08T07:04:51;100710.44;;;9.85;61.38
4022;BME280;2025;48.260;16.432;2023-05-08T07:07:18;100703.69;;;9.63;59.77
4022;BME280;2025;48.260;16.432;2023-05-08T07:09:45;100706.31;;;9.43;60.69
4022;BME280;2025;48.260;16.432;2023-05-08T07:12:12;100710.03;;;9.60;60.11
4022;BME280;2025;48.260;16.432;2023-05-08T07:14:41;100713.38;;;9.53;60.98
4022;BME280;2025;48.260;16.432;2023-05-08T07:17:08;100709.09;;;9.61;60.86
4022;BME280;2025;48.260;16.432;2023-05-08T07:19:35;100710.59;;;9.74;59.60
4022;BME280;2025;48.260;16.432;2023-05-08T07:22:04;100710.00;;;9.99;61.21
4022;BME280;2025;48.260;16.432;2023-05-08T07:24:31;100706.34;;;10.20;58.95
4022;BME280;2025;48.260;16.432;2023-05-08T07:26:58;100714.69;;;10.05;60.97
4022;BME280;2025;48.260;16.432;2023-05-08T07:29:25;100718.16;;;10.06;60.27
4022;BME280;2025;48.260;16.432;2023-05-08T07:31:53;100714.22;;;10.20;58.32
4022;BME280;2025;48.260;16.432;2023-05-08T07:34:20;100715.59;;;10.33;58.47
4022;BME280;2025;48.260;16.432;2023-05-08T07:36:46;100718.38;;;10.32;59.38
4022;BME280;2025;48.260;16.432;2023-05-08T07:39:15;100711.53;;;10.49;59.11
4022;BME280;2025;48.260;16.432;2023-05-08T07:41:42;100720.25;;;10.49;57.67
4022;BME280;2025;48.260;16.432;2023-05-08T07:44:10;100719.34;;;10.68;59.52
4022;BME280;2025;48.260;16.432;2023-05-08T07:46:37;100731.56;;;10.60;59.07
4022;BME280;2025;48.260;16.432;2023-05-08T07:49:04;100721.88;;;10.60;57.79
4022;BME280;2025;48.260;16.432;2023-05-08T07:51:31;100725.75;;;10.66;60.37
4022;BME280;2025;48.260;16.432;2023-05-08T07:53:58;100716.69;;;10.96;58.43
4022;BME280;2025;48.260;16.432;2023-05-08T07:56:26;100716.41;;;10.99;55.60
4022;BME280;2025;48.260;16.432;2023-05-08T07:58:54;100726.50;;;11.04;57.77
4022;BME280;2025;48.260;16.432;2023-05-08T08:01:20;100711.84;;;11.19;57.10
4022;BME280;2025;48.260;16.432;2023-05-08T08:03:47;100715.34;;;11.28;55.01
4022;BME280;2025;48.260;16.432;2023-05-08T08:06:14;100718.22;;;11.34;56.92
4022;BME280;2025;48.260;16.432;2023-05-08T08:08:42;100713.84;;;11.25;59.49
4022;BME280;2025;48.260;16.432;2023-05-08T08:11:09;100718.31;;;11.25;57.09
4022;BME280;2025;48.260;16.432;2023-05-08T08:13:38;100720.72;;;11.36;56.82
4022;BME280;2025;48.260;16.432;2023-05-08T08:16:05;100714.91;;;11.50;56.51
4022;BME280;2025;48.260;16.432;2023-05-08T08:18:33;100714.22;;;11.66;56.22
4022;BME280;2025;48.260;16.432;2023-05-08T08:21:00;100718.63;;;11.84;54.80
4022;BME280;2025;48.260;16.432;2023-05-08T08:23:30;100710.25;;;12.06;54.27
4022;BME280;2025;48.260;16.432;2023-05-08T08:25:57;100709.06;;;12.27;53.54
4022;BME280;2025;48.260;16.432;2023-05-08T08:28:24;100711.28;;;12.13;55.21
4022;BME280;2025;48.260;16.432;2023-05-08T08:30:52;100706.38;;;11.92;56.08
4022;BME280;2025;48.260;16.432;2023-05-08T08:33:19;100707.06;;;12.02;54.53
4022;BME280;2025;48.260;16.432;2023-05-08T08:35:46;100709.09;;;12.09;54.69
4022;BME280;2025;48.260;16.432;2023-05-08T08:38:13;100710.03;;;11.99;54.69
4022;BME280;2025;48.260;16.432;2023-05-08T08:40:41;100707.41;;;11.81;56.84
4022;BME280;2025;48.260;16.432;2023-05-08T08:43:08;100704.03;;;11.89;55.40
4022;BME280;2025;48.260;16.432;2023-05-08T08:45:36;100702.06;;;12.17;56.50
4022;BME280;2025;48.260;16.432;2023-05-08T08:48:09;100705.22;;;12.55;54.99
4022;BME280;2025;48.260;16.432;2023-05-08T08:50:41;100697.63;;;12.60;53.29
4022;BME280;2025;48.260;16.432;2023-05-08T08:53:10;100706.69;;;12.50;54.57
4022;BME280;2025;48.260;16.432;2023-05-08T08:55:44;100701.94;;;12.61;53.87
4022;BME280;2025;48.260;16.432;2023-05-08T08:58:18;100697.97;;;12.65;51.98
4022;BME280;2025;48.260;16.432;2023-05-08T09:00:48;100702.97;;;12.69;56.84
4022;BME280;2025;48.260;16.432;2023-05-08T09:03:17;100698.34;;;12.71;52.55
4022;BME280;2025;48.260;16.432;2023-05-08T09:05:44;100700.09;;;12.54;55.16
4022;BME280;2025;48.260;16.432;2023-05-08T09:08:13;100698.50;;;12.27;54.68
4022;BME280;2025;48.260;16.432;2023-05-08T09:10:40;100706.22;;;11.94;55.22
4022;BME280;2025;48.260;16.432;2023-05-08T09:13:07;100707.34;;;12.17;54.56
4022;BME280;2025;48.260;16.432;2023-05-08T09:15:34;100706.78;;;12.40;54.20
4022;BME280;2025;48.260;16.432;2023-05-08T09:18:01;100701.47;;;12.66;53.73
4022;BME280;2025;48.260;16.432;2023-05-08T09:20:30;100710.91;;;12.69;53.24
4022;BME280;2025;48.260;16.432;2023-05-08T09:22:59;100696.88;;;12.76;52.78
4022;BME280;2025;48.260;16.432;2023-05-08T09:25:40;100710.13;;;12.84;54.53
4022;BME280;2025;48.260;16.432;2023-05-08T09:28:25;100699.28;;;13.20;53.93
4022;BME280;2025;48.260;16.432;2023-05-08T09:30:53;100694.50;;;13.16;53.29
4022;BME280;2025;48.260;16.432;2023-05-08T09:33:21;100690.03;;;13.08;53.84
4022;BME280;2025;48.260;16.432;2023-05-08T09:35:50;100699.50;;;13.35;52.16
4022;BME280;2025;48.260;16.432;2023-05-08T09:38:34;100694.19;;;13.35;51.44
4022;BME280;2025;48.260;16.432;2023-05-08T09:41:09;100694.06;;;13.53;52.92
4022;BME280;2025;48.260;16.432;2023-05-08T09:43:36;100682.63;;;13.77;55.79
4022;BME280;2025;48.260;16.432;2023-05-08T09:46:24;100680.94;;;13.93;51.86
4022;BME280;2025;48.260;16.432;2023-05-08T09:48:53;100678.66;;;13.65;51.06
4022;BME280;2025;48.260;16.432;2023-05-08T09:51:22;100684.44;;;13.60;51.44
4022;BME280;2025;48.260;16.432;2023-05-08T09:53:50;100679.31;;;13.75;51.77
4022;BME280;2025;48.260;16.432;2023-05-08T09:56:35;100675.69;;;13.52;50.86
4022;BME280;2025;48.260;16.432;2023-05-08T09:59:04;100678.31;;;13.76;53.63
4022;BME280;2025;48.260;16.432;2023-05-08T10:01:33;100682.28;;;13.97;50.12
4022;BME280;2025;48.260;16.432;2023-05-08T10:04:00;100682.13;;;14.38;49.54
4022;BME280;2025;48.260;16.432;2023-05-08T10:06:29;100667.16;;;14.92;46.96
4022;BME280;2025;48.260;16.432;2023-05-08T10:09:07;100668.94;;;15.23;46.74
4022;BME280;2025;48.260;16.432;2023-05-08T10:11:34;100669.84;;;15.15;51.86
4022;BME280;2025;48.260;16.432;2023-05-08T10:14:01;100668.13;;;15.23;48.88
4022;BME280;2025;48.260;16.432;2023-05-08T10:16:29;100672.72;;;15.29;51.96
4022;BME280;2025;48.260;16.432;2023-05-08T10:19:00;100664.28;;;15.02;49.19
4022;BME280;2025;48.260;16.432;2023-05-08T10:21:35;100658.31;;;15.00;48.75
4022;BME280;2025;48.260;16.432;2023-05-08T10:24:05;100653.19;;;15.22;48.12
4022;BME280;2025;48.260;16.432;2023-05-08T10:26:41;100654.22;;;15.58;48.13
4022;BME280;2025;48.260;16.432;2023-05-08T10:29:15;100655.03;;;15.59;47.85
4022;BME280;2025;48.260;16.432;2023-05-08T10:31:45;100650.44;;;16.35;45.27
4022;BME280;2025;48.260;16.432;2023-05-08T10:34:16;100649.97;;;16.47;47.38
4022;BME280;2025;48.260;16.432;2023-05-08T10:36:46;100640.09;;;16.77;43.46
4022;BME280;2025;48.260;16.432;2023-05-08T10:39:13;100639.22;;;16.55;43.43
4022;BME280;2025;48.260;16.432;2023-05-08T10:41:41;100641.47;;;16.21;48.56
4022;BME280;2025;48.260;16.432;2023-05-08T10:44:09;100637.81;;;16.22;47.94
4022;BME280;2025;48.260;16.432;2023-05-08T10:46:39;100631.13;;;16.63;44.57
4022;BME280;2025;48.260;16.432;2023-05-08T10:49:16;100621.56;;;16.69;42.84
4022;BME280;2025;48.260;16.432;2023-05-08T10:51:52;100630.06;;;16.94;44.79
4022;BME280;2025;48.260;16.432;2023-05-08T10:54:27;100621.50;;;17.20;42.09
4022;BME280;2025;48.260;16.432;2023-05-08T10:57:07;100619.78;;;17.34;42.27
4022;BME280;2025;48.260;16.432;2023-05-08T10:59:34;100613.53;;;17.48;44.20
4022;BME280;2025;48.260;16.432;2023-05-08T11:02:05;100607.25;;;17.84;42.18
4022;BME280;2025;48.260;16.432;2023-05-08T11:04:33;100606.59;;;18.17;40.41
4022;BME280;2025;48.260;16.432;2023-05-08T11:07:02;100611.59;;;18.33;44.35
4022;BME280;2025;48.260;16.432;2023-05-08T11:09:43;100605.88;;;18.43;41.45
4022;BME280;2025;48.260;16.432;2023-05-08T11:12:19;100594.81;;;18.46;39.51
4022;BME280;2025;48.260;16.432;2023-05-08T11:14:54;100595.81;;;18.38;41.68
4022;BME280;2025;48.260;16.432;2023-05-08T11:17:23;100591.28;;;18.32;43.52
4022;BME280;2025;48.260;16.432;2023-05-08T11:19:55;100603.38;;;18.28;41.68
4022;BME280;2025;48.260;16.432;2023-05-08T11:22:26;100587.81;;;17.90;43.41
4022;BME280;2025;48.260;16.432;2023-05-08T11:24:56;100592.09;;;17.84;46.19
4022;BME280;2025;48.260;16.432;2023-05-08T11:30:23;100578.63;;;17.99;39.75
4022;BME280;2025;48.260;16.432;2023-05-08T11:33:33;100580.94;;;17.18;42.63
4022;BME280;2025;48.260;16.432;2023-05-08T11:36:11;100576.63;;;17.17;41.46
4022;BME280;2025;48.260;16.432;2023-05-08T11:38:41;100583.47;;;17.54;42.96
4022;BME280;2025;48.260;16.432;2023-05-08T11:41:09;100575.78;;;18.01;42.56
4022;BME280;2025;48.260;16.432;2023-05-08T11:46:42;100572.41;;;18.33;48.61
4022;BME280;2025;48.260;16.432;2023-05-08T11:49:11;100570.81;;;18.46;44.81
4022;BME280;2025;48.260;16.432;2023-05-08T11:51:39;100569.47;;;18.83;38.65
4022;BME280;2025;48.260;16.432;2023-05-08T11:54:14;100567.84;;;19.09;42.26
4022;BME280;2025;48.260;16.432;2023-05-08T11:56:42;100575.25;;;19.20;39.83
4022;BME280;2025;48.260;16.432;2023-05-08T11:59:10;100560.81;;;18.68;39.14
4022;BME280;2025;48.260;16.432;2023-05-08T12:01:37;100560.25;;;18.79;41.71
4022;BME280;2025;48.260;16.432;2023-05-08T12:04:06;100565.31;;;18.74;40.58
4022;BME280;2025;48.260;16.432;2023-05-08T12:06:34;100561.06;;;19.00;38.79
4022;BME280;2025;48.260;16.432;2023-05-08T12:09:08;100561.69;;;19.02;41.47
4022;BME280;2025;48.260;16.432;2023-05-08T12:11:36;100570.31;;;19.37;40.49
4022;BME280;2025;48.260;16.432;2023-05-08T12:14:03;100571.75;;;19.26;37.40
4022;BME280;2025;48.260;16.432;2023-05-08T12:16:34;100565.38;;;19.27;38.04
4022;BME280;2025;48.260;16.432;2023-05-08T12:19:01;100566.81;;;18.97;38.16
4022;BME280;2025;48.260;16.432;2023-05-08T12:21:28;100569.28;;;18.98;41.29
4022;BME280;2025;48.260;16.432;2023-05-08T12:23:55;100573.19;;;19.49;37.78
4022;BME280;2025;48.260;16.432;2023-05-08T12:26:23;100563.88;;;19.65;37.80
4022;BME280;2025;48.260;16.432;2023-05-08T12:28:55;100564.56;;;19.40;38.43
4022;BME280;2025;48.260;16.432;2023-05-08T12:31:22;100563.75;;;19.40;37.98
4022;BME280;2025;48.260;16.432;2023-05-08T12:33:49;100565.56;;;19.59;37.82
4022;BME280;2025;48.260;16.432;2023-05-08T12:36:16;100563.31;;;19.56;37.09
4022;BME280;2025;48.260;16.432;2023-05-08T12:38:43;100564.72;;;19.65;40.49
4022;BME280;2025;48.260;16.432;2023-05-08T12:41:10;100559.59;;;19.77;36.74
4022;BME280;2025;48.260;16.432;2023-05-08T12:43:37;100561.19;;;19.91;35.68
4022;BME280;2025;48.260;16.432;2023-05-08T12:46:10;100558.19;;;19.34;36.47
4022;BME280;2025;48.260;16.432;2023-05-08T12:48:37;100551.63;;;19.17;36.58
4022;BME280;2025;48.260;16.432;2023-05-08T12:51:04;100551.00;;;19.28;40.92
4022;BME280;2025;48.260;16.432;2023-05-08T12:53:32;100553.44;;;19.43;40.89
4022;BME280;2025;48.260;16.432;2023-05-08T12:56:02;100550.13;;;19.68;36.27
4022;BME280;2025;48.260;16.432;2023-05-08T12:58:31;100541.91;;;19.69;39.00
4022;BME280;2025;48.260;16.432;2023-05-08T13:01:08;100538.94;;;19.97;38.01
4022;BME280;2025;48.260;16.432;2023-05-08T13:03:37;100535.53;;;19.84;38.55
4022;BME280;2025;48.260;16.432;2023-05-08T13:06:05;100537.41;;;20.21;35.99
4022;BME280;2025;48.260;16.432;2023-05-08T13:08:34;100536.91;;;20.38;36.70
4022;BME280;2025;48.260;16.432;2023-05-08T13:11:02;100535.59;;;20.09;36.94
4022;BME280;2025;48.260;16.432;2023-05-08T13:13:30;100535.03;;;20.00;36.99
4022;BME280;2025;48.260;16.432;2023-05-08T13:16:01;100526.28;;;19.79;36.08
4022;BME280;2025;48.260;16.432;2023-05-08T13:18:30;100539.31;;;20.08;37.45
4022;BME280;2025;48.260;16.432;2023-05-08T13:20:57;100534.31;;;19.73;35.03
4022;BME280;2025;48.260;16.432;2023-05-08T13:23:26;100530.00;;;19.65;37.65